createdAt,value
2023-04-16T00:01:47.927Z,89.30
2023-04-16T00:04:14.890Z,89.68
2023-04-16T00:06:41.879Z,89.30
2023-04-16T00:09:08.821Z,88.22
2023-04-16T00:11:35.876Z,88.65
2023-04-16T00:14:02.607Z,88.39
2023-04-16T00:16:29.353Z,88.56
2023-04-16T00:18:56.106Z,89.23
2023-04-16T00:21:22.790Z,89.84
2023-04-16T00:23:49.525Z,89.73
2023-04-16T00:26:16.233Z,89.54
2023-04-16T00:28:44.850Z,88.81
2023-04-16T00:31:11.607Z,89.40
2023-04-16T00:33:38.381Z,88.64
2023-04-16T00:36:05.383Z,88.12
2023-04-16T00:38:32.580Z,87.87
2023-04-16T00:40:59.318Z,87.78
2023-04-16T00:43:26.850Z,88.08
2023-04-16T00:45:54.161Z,88.69
2023-04-16T00:48:21.852Z,88.88
2023-04-16T00:50:48.997Z,89.11
2023-04-16T00:53:16.227Z,87.93
2023-04-16T00:55:43.817Z,88.46
2023-04-16T00:58:10.804Z,87.71
2023-04-16T01:00:37.686Z,87.52
2023-04-16T01:03:05.129Z,87.91
2023-04-16T01:05:32.047Z,87.83
2023-04-16T01:08:01.148Z,88.54
2023-04-16T01:10:28.070Z,88.57
2023-04-16T01:12:54.763Z,88.43
2023-04-16T01:15:21.731Z,88.05
2023-04-16T01:17:48.572Z,87.91
2023-04-16T01:20:15.599Z,88.38
2023-04-16T01:22:42.805Z,89.41
2023-04-16T01:25:14.155Z,89.38
2023-04-16T01:27:41.128Z,90.13
2023-04-16T01:30:08.365Z,89.82
2023-04-16T01:32:48.847Z,89.08
2023-04-16T01:35:15.779Z,88.25
2023-04-16T01:37:45.098Z,88.12
2023-04-16T01:40:11.897Z,87.32
2023-04-16T01:42:38.782Z,88.55
2023-04-16T01:45:06.195Z,88.25
2023-04-16T01:47:33.179Z,89.51
2023-04-16T01:50:00.814Z,88.76
2023-04-16T01:52:27.475Z,88.37
2023-04-16T01:54:54.139Z,88.13
2023-04-16T01:57:20.945Z,87.10
2023-04-16T01:59:47.668Z,87.01
2023-04-16T02:02:16.423Z,87.49
2023-04-16T02:04:45.277Z,86.85
2023-04-16T02:07:12.362Z,86.92
2023-04-16T02:09:40.270Z,88.05
2023-04-16T02:12:07.844Z,87.71
2023-04-16T02:14:34.641Z,88.13
2023-04-16T02:17:01.974Z,86.47
2023-04-16T02:19:39.996Z,86.73
2023-04-16T02:22:08.086Z,87.62
2023-04-16T02:24:34.779Z,87.49
2023-04-16T02:27:06.001Z,86.95
2023-04-16T02:29:32.895Z,86.28
2023-04-16T02:32:07.057Z,85.54
2023-04-16T02:34:35.501Z,86.10
2023-04-16T02:37:02.520Z,86.02
2023-04-16T02:39:29.266Z,86.17
2023-04-16T02:41:56.256Z,86.34
2023-04-16T02:44:23.163Z,86.00
2023-04-16T02:46:49.908Z,86.99
2023-04-16T02:49:16.652Z,87.21
2023-04-16T02:51:43.379Z,85.89
2023-04-16T02:54:10.330Z,86.49
2023-04-16T02:56:37.024Z,86.75
2023-04-16T02:59:03.885Z,86.92
2023-04-16T03:01:30.686Z,87.27
2023-04-16T03:03:57.563Z,86.79
2023-04-16T03:06:24.387Z,86.63
2023-04-16T03:08:51.192Z,87.33
2023-04-16T03:11:17.951Z,87.57
2023-04-16T03:13:44.715Z,87.85
2023-04-16T03:16:11.775Z,87.51
2023-04-16T03:18:38.435Z,87.34
2023-04-16T03:21:05.608Z,87.06
2023-04-16T03:23:32.318Z,86.48
2023-04-16T03:25:59.096Z,85.29
2023-04-16T03:28:26.242Z,84.84
2023-04-16T03:30:53.816Z,86.26
2023-04-16T03:33:21.051Z,84.57
2023-04-16T03:35:47.721Z,84.58
2023-04-16T03:38:14.599Z,84.48
2023-04-16T03:40:41.438Z,84.17
2023-04-16T03:43:08.585Z,85.11
2023-04-16T03:45:35.434Z,84.09
2023-04-16T03:48:02.104Z,84.82
2023-04-16T03:50:29.059Z,84.46
2023-04-16T03:52:56.255Z,84.42
2023-04-16T03:55:23.039Z,84.53
2023-04-16T03:57:50.043Z,84.91
2023-04-16T04:00:19.391Z,84.67
2023-04-16T04:02:57.160Z,84.59
2023-04-16T04:05:24.201Z,84.62
2023-04-16T04:07:51.978Z,83.52
2023-04-16T04:10:18.815Z,84.67
2023-04-16T04:12:45.679Z,84.08
2023-04-16T04:15:12.770Z,84.08
2023-04-16T04:17:39.485Z,84.25
2023-04-16T04:20:06.856Z,83.79
2023-04-16T04:22:33.568Z,83.83
2023-04-16T04:25:00.836Z,85.14
2023-04-16T04:27:29.966Z,85.39
2023-04-16T04:29:57.016Z,85.29
2023-04-16T04:32:24.664Z,85.63
2023-04-16T04:34:51.649Z,85.42
2023-04-16T04:37:18.331Z,86.48
2023-04-16T04:39:45.229Z,86.18
2023-04-16T04:42:12.695Z,86.47
2023-04-16T04:44:39.536Z,87.49
2023-04-16T04:47:08.000Z,86.74
2023-04-16T04:49:35.126Z,86.59
2023-04-16T04:52:03.196Z,86.02
2023-04-16T04:54:32.030Z,86.12
2023-04-16T04:56:59.222Z,86.47
2023-04-16T04:59:26.017Z,87.29
2023-04-16T05:01:52.949Z,87.39
2023-04-16T05:04:19.781Z,86.87
2023-04-16T05:06:46.592Z,85.67
2023-04-16T05:09:13.263Z,86.74
2023-04-16T05:11:41.737Z,87.70
2023-04-16T05:14:08.505Z,87.20
2023-04-16T05:16:36.501Z,86.69
2023-04-16T05:19:03.346Z,86.89
2023-04-16T05:21:30.013Z,87.96
2023-04-16T05:23:56.790Z,87.97
2023-04-16T05:26:23.524Z,87.92
2023-04-16T05:28:50.222Z,87.24
2023-04-16T05:31:17.007Z,86.79
2023-04-16T05:33:43.809Z,87.46
2023-04-16T05:36:10.470Z,87.78
2023-04-16T05:38:37.258Z,87.55
2023-04-16T05:41:04.128Z,87.24
2023-04-16T05:43:30.771Z,86.62
2023-04-16T05:45:57.474Z,87.91
2023-04-16T05:48:24.302Z,87.95
2023-04-16T05:50:51.058Z,87.49
2023-04-16T05:53:19.033Z,86.81
2023-04-16T05:55:46.819Z,86.90
2023-04-16T05:58:13.596Z,87.87
2023-04-16T06:00:40.934Z,87.83
2023-04-16T06:03:07.746Z,87.70
2023-04-16T06:05:34.667Z,86.85
2023-04-16T06:08:01.360Z,87.85
2023-04-16T06:10:28.443Z,87.78
2023-04-16T06:12:55.300Z,87.00
2023-04-16T06:15:22.023Z,87.44
2023-04-16T06:17:49.785Z,86.81
2023-04-16T06:20:16.559Z,87.51
2023-04-16T06:22:43.414Z,87.14
2023-04-16T06:25:10.139Z,87.03
2023-04-16T06:27:37.232Z,86.97
2023-04-16T06:30:04.219Z,86.97
2023-04-16T06:32:31.276Z,88.04
2023-04-16T06:34:58.825Z,87.51
2023-04-16T06:37:25.764Z,87.62
2023-04-16T06:39:52.461Z,87.10
2023-04-16T06:42:20.023Z,86.60
2023-04-16T06:44:46.700Z,85.68
2023-04-16T06:47:13.448Z,85.00
2023-04-16T06:49:40.385Z,85.93
2023-04-16T06:52:07.245Z,84.44
2023-04-16T06:54:34.048Z,85.47
2023-04-16T06:57:00.745Z,86.95
2023-04-16T06:59:27.414Z,86.37
2023-04-16T07:01:54.175Z,86.52
2023-04-16T07:04:21.220Z,86.37
2023-04-16T07:06:48.014Z,86.84
2023-04-16T07:09:14.780Z,85.67
2023-04-16T07:11:41.940Z,87.08
2023-04-16T07:14:08.621Z,87.06
2023-04-16T07:16:37.653Z,86.17
2023-04-16T07:19:04.511Z,86.00
2023-04-16T07:21:31.817Z,85.42
2023-04-16T07:23:58.497Z,85.03
2023-04-16T07:26:25.293Z,84.99
2023-04-16T07:28:52.040Z,84.34
2023-04-16T07:31:18.813Z,85.36
2023-04-16T07:33:45.608Z,84.83
2023-04-16T07:36:12.452Z,85.38
2023-04-16T07:38:39.141Z,85.60
2023-04-16T07:41:06.023Z,84.73
2023-04-16T07:43:32.671Z,84.32
2023-04-16T07:45:59.505Z,83.20
2023-04-16T07:48:26.261Z,82.62
2023-04-16T07:50:52.991Z,82.66
2023-04-16T07:53:19.634Z,82.85
2023-04-16T07:55:46.553Z,82.27
2023-04-16T07:58:13.226Z,83.16
2023-04-16T08:00:40.068Z,81.43
2023-04-16T08:03:06.975Z,82.01
2023-04-16T08:05:33.719Z,82.85
2023-04-16T08:08:00.459Z,81.49
2023-04-16T08:10:27.837Z,81.05
2023-04-16T08:12:54.530Z,80.91
2023-04-16T08:15:21.215Z,80.04
2023-04-16T08:17:48.075Z,78.96
2023-04-16T08:20:17.039Z,79.49
2023-04-16T08:22:46.223Z,79.14
2023-04-16T08:25:12.921Z,80.04
2023-04-16T08:27:39.628Z,79.42
2023-04-16T08:30:08.112Z,79.51
2023-04-16T08:32:34.921Z,78.31
2023-04-16T08:35:01.712Z,79.21
2023-04-16T08:37:28.478Z,79.30
2023-04-16T08:39:55.376Z,79.54
2023-04-16T08:42:30.165Z,78.56
2023-04-16T08:45:23.060Z,79.55
2023-04-16T08:47:51.220Z,77.22
2023-04-16T08:50:23.535Z,76.84
2023-04-16T08:52:55.400Z,77.90
2023-04-16T08:55:23.921Z,77.15
2023-04-16T08:58:21.866Z,77.42
2023-04-16T09:00:51.916Z,77.27
2023-04-16T09:03:21.732Z,76.10
2023-04-16T09:05:49.532Z,76.56
2023-04-16T09:08:17.577Z,73.64
2023-04-16T09:10:44.287Z,74.99
2023-04-16T09:13:11.713Z,76.61
2023-04-16T09:15:39.699Z,75.18
2023-04-16T09:18:06.559Z,75.14
2023-04-16T09:20:33.300Z,73.59
2023-04-16T09:22:59.940Z,74.79
2023-04-16T09:25:26.668Z,75.20
2023-04-16T09:27:53.580Z,73.38
2023-04-16T09:30:24.970Z,72.98
2023-04-16T09:32:52.925Z,73.46
2023-04-16T09:35:20.437Z,73.38
2023-04-16T09:37:57.257Z,74.27
2023-04-16T09:40:30.331Z,75.71
2023-04-16T09:42:58.247Z,74.97
2023-04-16T09:45:24.970Z,73.13
2023-04-16T09:47:51.855Z,74.05
2023-04-16T09:50:20.039Z,74.21
2023-04-16T09:52:53.152Z,73.59
2023-04-16T09:55:23.803Z,73.52
2023-04-16T09:57:58.809Z,72.98
2023-04-16T10:00:25.611Z,73.67
2023-04-16T10:03:03.897Z,75.56
2023-04-16T10:05:30.784Z,75.45
2023-04-16T10:08:00.897Z,73.76
2023-04-16T10:10:27.864Z,74.51
2023-04-16T10:12:58.245Z,70.82
2023-04-16T10:15:25.350Z,72.66
2023-04-16T10:17:53.961Z,70.94
2023-04-16T10:20:21.182Z,73.48
2023-04-16T10:22:48.261Z,73.54
2023-04-16T10:25:15.410Z,70.74
2023-04-16T10:27:42.209Z,72.62
2023-04-16T10:30:09.903Z,70.91
2023-04-16T10:32:38.102Z,71.99
2023-04-16T10:35:05.732Z,71.08
2023-04-16T10:37:32.710Z,72.69
2023-04-16T10:40:00.086Z,73.99
2023-04-16T10:42:27.555Z,72.33
2023-04-16T10:44:54.300Z,72.38
2023-04-16T10:47:24.821Z,72.41
2023-04-16T10:49:52.087Z,73.01
2023-04-16T10:52:18.946Z,73.46
2023-04-16T10:54:47.826Z,73.78
2023-04-16T10:57:19.712Z,72.06
2023-04-16T10:59:46.771Z,74.85
2023-04-16T11:02:15.730Z,75.57
2023-04-16T11:04:45.242Z,74.58
2023-04-16T11:07:14.860Z,74.77
2023-04-16T11:09:50.559Z,74.83
2023-04-16T11:12:19.650Z,75.46
2023-04-16T11:14:54.218Z,75.07
2023-04-16T11:17:21.697Z,74.58
2023-04-16T11:19:48.537Z,76.75
2023-04-16T11:22:17.584Z,75.85
2023-04-16T11:24:47.660Z,76.61
2023-04-16T11:27:16.106Z,75.34
2023-04-16T11:29:43.947Z,75.92
2023-04-16T11:32:21.634Z,75.85
2023-04-16T11:34:48.382Z,75.75
2023-04-16T11:37:15.077Z,76.25
2023-04-16T11:39:54.297Z,77.75
2023-04-16T11:42:26.999Z,76.21
2023-04-16T11:45:00.350Z,76.52
2023-04-16T11:47:27.811Z,78.02
2023-04-16T11:49:54.665Z,77.40
2023-04-16T11:52:32.192Z,78.45
2023-04-16T11:54:59.527Z,78.54
2023-04-16T11:57:27.501Z,78.76
2023-04-16T12:00:03.002Z,79.41
2023-04-16T12:02:52.425Z,79.33
2023-04-16T12:05:31.964Z,77.30
2023-04-16T12:07:59.953Z,79.69
2023-04-16T12:10:27.380Z,79.20
2023-04-16T12:12:54.236Z,79.16
2023-04-16T12:15:21.045Z,79.14
2023-04-16T12:17:48.147Z,78.93
2023-04-16T12:20:15.687Z,79.47
2023-04-16T12:22:47.403Z,77.98
2023-04-16T12:25:15.639Z,76.77
2023-04-16T12:27:56.012Z,75.93
2023-04-16T12:30:23.782Z,75.33
2023-04-16T12:32:53.544Z,75.94
2023-04-16T12:35:31.561Z,75.58
2023-04-16T12:37:58.471Z,74.83
2023-04-16T12:40:25.402Z,74.75
2023-04-16T12:42:52.462Z,73.13
2023-04-16T12:45:19.148Z,75.20
2023-04-16T12:47:46.851Z,72.83
2023-04-16T12:50:13.981Z,72.47
2023-04-16T12:52:40.728Z,72.48
2023-04-16T12:55:08.037Z,74.02
2023-04-16T12:57:34.742Z,73.45
2023-04-16T13:00:01.663Z,74.91
2023-04-16T13:02:28.455Z,73.79
2023-04-16T13:04:55.320Z,72.33
2023-04-16T13:07:22.019Z,72.13
2023-04-16T13:09:48.714Z,74.11
2023-04-16T13:12:15.669Z,75.85
2023-04-16T13:14:44.011Z,75.38
2023-04-16T13:17:11.912Z,77.25
2023-04-16T13:19:38.564Z,74.72
2023-04-16T13:22:05.304Z,74.83
2023-04-16T13:24:32.036Z,76.22
2023-04-16T13:26:59.471Z,75.01
2023-04-16T13:29:26.333Z,75.31
2023-04-16T13:31:53.092Z,75.01
2023-04-16T13:34:20.017Z,75.02
2023-04-16T13:36:46.840Z,76.17
2023-04-16T13:39:13.944Z,76.04
2023-04-16T13:41:40.769Z,73.55
2023-04-16T13:44:07.636Z,75.90
2023-04-16T13:46:34.413Z,76.78
2023-04-16T13:49:01.385Z,75.22
2023-04-16T13:51:28.075Z,76.67
2023-04-16T13:53:57.899Z,76.24
2023-04-16T13:56:25.155Z,76.47
2023-04-16T13:58:52.327Z,75.86
2023-04-16T14:01:19.376Z,75.30
2023-04-16T14:03:46.570Z,76.15
2023-04-16T14:06:13.825Z,76.13
2023-04-16T14:08:40.654Z,74.55
2023-04-16T14:11:07.682Z,75.41
2023-04-16T14:13:34.457Z,76.60
2023-04-16T14:16:01.947Z,76.86
2023-04-16T14:18:28.677Z,75.59
2023-04-16T14:20:55.384Z,77.56
2023-04-16T14:23:22.177Z,76.49
2023-04-16T14:25:48.884Z,75.07
2023-04-16T14:28:16.019Z,76.33
2023-04-16T14:30:42.637Z,77.59
2023-04-16T14:33:09.636Z,78.46
2023-04-16T14:35:36.432Z,79.42
2023-04-16T14:38:03.293Z,80.17
2023-04-16T14:40:30.036Z,79.59
2023-04-16T14:42:56.689Z,80.74
2023-04-16T14:45:26.262Z,81.01
2023-04-16T14:47:54.208Z,81.47
2023-04-16T14:50:20.942Z,81.01
2023-04-16T14:52:47.669Z,80.45
2023-04-16T14:55:14.502Z,78.86
2023-04-16T14:57:41.958Z,75.42
2023-04-16T15:00:12.438Z,76.63
2023-04-16T15:02:39.400Z,78.78
2023-04-16T15:05:07.914Z,78.34
2023-04-16T15:07:34.610Z,77.68
2023-04-16T15:10:01.317Z,76.68
2023-04-16T15:12:27.973Z,77.26
2023-04-16T15:14:54.666Z,76.03
2023-04-16T15:17:21.528Z,76.48
2023-04-16T15:19:48.252Z,79.34
2023-04-16T15:22:14.934Z,76.80
2023-04-16T15:24:41.794Z,77.75
2023-04-16T15:27:11.605Z,76.61
2023-04-16T15:29:38.780Z,77.65
2023-04-16T15:32:06.956Z,79.20
2023-04-16T15:34:33.704Z,76.96
2023-04-16T15:37:00.524Z,78.93
2023-04-16T15:39:27.237Z,78.98
2023-04-16T15:42:01.189Z,79.32
2023-04-16T15:44:31.095Z,80.30
2023-04-16T15:46:58.000Z,79.26
2023-04-16T15:49:24.981Z,79.94
2023-04-16T15:51:52.554Z,79.32
2023-04-16T15:54:19.300Z,79.61
2023-04-16T15:56:46.682Z,78.18
2023-04-16T15:59:13.620Z,79.58
2023-04-16T16:01:40.900Z,80.25
2023-04-16T16:04:08.181Z,80.31
2023-04-16T16:06:36.039Z,81.26
2023-04-16T16:09:02.803Z,80.57
2023-04-16T16:11:29.496Z,80.86
2023-04-16T16:13:56.297Z,81.03
2023-04-16T16:16:23.035Z,80.69
2023-04-16T16:18:49.750Z,80.98
2023-04-16T16:21:16.659Z,80.46
2023-04-16T16:23:43.316Z,81.23
2023-04-16T16:26:10.172Z,80.78
2023-04-16T16:28:37.942Z,81.19
2023-04-16T16:31:07.517Z,80.90
2023-04-16T16:33:34.265Z,81.09
2023-04-16T16:36:01.128Z,80.24
2023-04-16T16:38:28.105Z,80.78
2023-04-16T16:40:54.801Z,80.71
2023-04-16T16:43:21.579Z,80.81
2023-04-16T16:45:48.959Z,80.32
2023-04-16T16:48:15.643Z,81.23
2023-04-16T16:50:42.398Z,81.07
2023-04-16T16:53:09.193Z,81.63
2023-04-16T16:55:36.048Z,81.29
2023-04-16T16:58:03.093Z,81.34
2023-04-16T17:00:29.801Z,81.22
2023-04-16T17:02:56.623Z,82.13
2023-04-16T17:05:23.556Z,81.99
2023-04-16T17:07:50.401Z,80.90
2023-04-16T17:10:21.094Z,81.26
2023-04-16T17:12:49.335Z,81.12
2023-04-16T17:15:18.039Z,81.45
2023-04-16T17:17:46.565Z,81.66
2023-04-16T17:20:14.374Z,80.62
2023-04-16T17:22:41.079Z,80.15
2023-04-16T17:25:08.267Z,80.25
2023-04-16T17:27:35.035Z,79.58
2023-04-16T17:30:02.678Z,80.40
2023-04-16T17:32:30.033Z,80.98
2023-04-16T17:34:57.012Z,81.62
2023-04-16T17:37:23.724Z,82.42
2023-04-16T17:39:50.452Z,83.31
2023-04-16T17:42:17.478Z,83.14
2023-04-16T17:44:44.195Z,83.48
2023-04-16T17:47:10.956Z,83.92
2023-04-16T17:49:37.722Z,84.55
2023-04-16T17:52:04.453Z,84.34
2023-04-16T17:54:31.571Z,85.23
2023-04-16T17:56:59.116Z,85.77
2023-04-16T17:59:25.967Z,86.18
2023-04-16T18:01:52.970Z,85.42
2023-04-16T18:04:19.860Z,85.54
2023-04-16T18:06:46.682Z,85.46
2023-04-16T18:09:14.474Z,83.77
2023-04-16T18:11:41.158Z,83.85
2023-04-16T18:14:09.873Z,84.20
2023-04-16T18:16:36.902Z,83.46
2023-04-16T18:19:03.626Z,83.00
2023-04-16T18:21:30.491Z,83.42
2023-04-16T18:23:57.872Z,83.26
2023-04-16T18:26:25.388Z,83.26
2023-04-16T18:28:52.227Z,84.40
2023-04-16T18:31:21.181Z,83.77
2023-04-16T18:33:56.376Z,82.05
2023-04-16T18:36:24.677Z,81.97
2023-04-16T18:39:01.007Z,81.67
2023-04-16T18:41:29.051Z,82.48
2023-04-16T18:43:55.844Z,83.23
2023-04-16T18:46:23.126Z,83.95
2023-04-16T18:48:51.899Z,83.71
2023-04-16T18:51:19.973Z,84.74
2023-04-16T18:53:48.641Z,85.25
2023-04-16T18:56:16.383Z,85.06
2023-04-16T18:58:44.461Z,85.58
2023-04-16T19:01:14.366Z,85.89
2023-04-16T19:03:42.431Z,85.62
2023-04-16T19:06:10.467Z,85.78
2023-04-16T19:08:37.832Z,85.58
2023-04-16T19:11:06.214Z,85.72
2023-04-16T19:13:33.714Z,85.33
2023-04-16T19:16:03.358Z,84.65
2023-04-16T19:18:31.092Z,85.32
2023-04-16T19:21:01.414Z,85.57
2023-04-16T19:23:30.131Z,85.68
2023-04-16T19:25:58.301Z,86.20
2023-04-16T19:28:26.639Z,86.11
2023-04-16T19:30:54.808Z,86.84
2023-04-16T19:33:21.986Z,86.98
2023-04-16T19:35:49.707Z,87.57
2023-04-16T19:38:17.576Z,86.97
2023-04-16T19:40:47.207Z,87.43
2023-04-16T19:43:15.917Z,87.61
2023-04-16T19:45:47.229Z,86.80
2023-04-16T19:48:16.320Z,87.93
2023-04-16T19:50:43.645Z,88.55
2023-04-16T19:53:12.100Z,88.65
2023-04-16T19:55:41.627Z,88.67
2023-04-16T19:58:10.772Z,88.00
2023-04-16T20:00:41.320Z,87.80
2023-04-16T20:03:09.908Z,87.77
2023-04-16T20:05:37.592Z,87.41
2023-04-16T20:08:08.532Z,87.45
2023-04-16T20:10:37.331Z,87.31
2023-04-16T20:13:12.144Z,86.44
2023-04-16T20:15:39.659Z,87.12
2023-04-16T20:18:11.813Z,85.80
2023-04-16T20:20:39.376Z,86.06
2023-04-16T20:23:06.359Z,86.32
2023-04-16T20:25:33.610Z,86.30
2023-04-16T20:28:01.664Z,85.97
2023-04-16T20:30:31.456Z,85.84
2023-04-16T20:33:00.408Z,85.46
2023-04-16T20:35:28.172Z,85.61
2023-04-16T20:37:56.096Z,86.65
2023-04-16T20:40:25.888Z,87.02
2023-04-16T20:42:54.874Z,87.23
2023-04-16T20:45:25.079Z,87.42
2023-04-16T20:47:54.643Z,86.81
2023-04-16T20:50:22.064Z,87.00
2023-04-16T20:52:51.448Z,87.49
2023-04-16T20:55:19.717Z,86.81
2023-04-16T20:57:50.191Z,87.16
2023-04-16T21:00:18.685Z,87.91
2023-04-16T21:02:46.444Z,87.51
2023-04-16T21:05:15.720Z,87.88
2023-04-16T21:07:44.197Z,87.40
2023-04-16T21:10:18.098Z,87.58
2023-04-16T21:12:45.271Z,87.04
2023-04-16T21:15:12.394Z,87.10
2023-04-16T21:17:39.900Z,87.27
2023-04-16T21:20:11.206Z,87.12
2023-04-16T21:22:38.731Z,87.80
2023-04-16T21:25:08.369Z,87.76
2023-04-16T21:27:35.890Z,87.40
2023-04-16T21:30:04.578Z,87.46
2023-04-16T21:32:32.438Z,88.01
2023-04-16T21:35:00.710Z,87.86
2023-04-16T21:37:28.716Z,88.74
2023-04-16T21:39:57.078Z,88.93
2023-04-16T21:42:49.587Z,88.23
2023-04-16T21:45:17.622Z,88.34
2023-04-16T21:47:48.050Z,88.29
2023-04-16T21:50:17.999Z,87.82
2023-04-16T21:52:47.182Z,88.17
2023-04-16T21:55:15.401Z,88.11
2023-04-16T21:57:46.807Z,88.53
2023-04-16T22:00:16.938Z,89.20
2023-04-16T22:02:46.544Z,88.61
2023-04-16T22:05:14.752Z,89.06
2023-04-16T22:07:45.508Z,89.27
2023-04-16T22:10:15.037Z,89.33
2023-04-16T22:12:45.616Z,88.64
2023-04-16T22:15:16.559Z,89.11
2023-04-16T22:17:44.902Z,89.50
2023-04-16T22:20:17.505Z,89.40
2023-04-16T22:22:45.760Z,89.30
2023-04-16T22:25:13.712Z,89.04
2023-04-16T22:27:44.847Z,89.34
2023-04-16T22:30:15.348Z,88.58
2023-04-16T22:32:45.885Z,88.73
2023-04-16T22:35:14.215Z,88.91
2023-04-16T22:37:41.744Z,89.15
2023-04-16T22:40:12.912Z,89.18
2023-04-16T22:42:40.282Z,89.15
2023-04-16T22:45:08.855Z,89.61
2023-04-16T22:47:40.423Z,89.61
2023-04-16T22:50:09.037Z,89.58
2023-04-16T22:52:38.179Z,89.50
2023-04-16T22:55:06.640Z,88.96
2023-04-16T22:57:34.300Z,89.39
2023-04-16T23:00:02.084Z,89.37
2023-04-16T23:02:32.484Z,89.61
2023-04-16T23:05:03.677Z,90.12
2023-04-16T23:07:34.217Z,90.25
2023-04-16T23:10:03.452Z,89.68
2023-04-16T23:12:33.638Z,89.79
2023-04-16T23:15:04.149Z,89.10
2023-04-16T23:17:34.094Z,89.26
2023-04-16T23:20:02.104Z,89.25
2023-04-16T23:22:30.815Z,89.58
2023-04-16T23:24:59.168Z,90.15
2023-04-16T23:27:29.940Z,89.36
2023-04-16T23:30:02.762Z,89.36
2023-04-16T23:32:35.603Z,89.46
2023-04-16T23:35:03.430Z,89.36
2023-04-16T23:37:37.348Z,89.77
2023-04-16T23:40:05.793Z,89.85
2023-04-16T23:42:33.145Z,89.60
2023-04-16T23:45:00.833Z,89.54
2023-04-16T23:47:33.061Z,89.25
2023-04-16T23:50:00.997Z,89.58
2023-04-16T23:52:31.275Z,89.53
2023-04-16T23:54:58.673Z,88.93
2023-04-16T23:57:26.077Z,89.80
2023-04-16T23:59:56.686Z,89.94
